sensor_id;sensor_type;location;lat;lon;timestamp;pressure;altitude;pressure_sealevel;temperature;humidity
28701;BME280;15877;52.344;16.790;2023-09-19T07:44:07;99986.87;;;21.23;86.43
28701;BME280;15877;52.344;16.790;2023-09-19T07:46:36;99988.86;;;21.29;85.61
28701;BME280;15877;52.344;16.790;2023-09-19T07:49:05;99990.11;;;21.34;84.08
28701;BME280;15877;52.344;16.790;2023-09-19T07:51:34;99994.35;;;21.38;83.22
28701;BME280;15877;52.344;16.790;2023-09-19T07:54:03;99991.97;;;21.45;82.56
28701;BME280;15877;52.344;16.790;2023-09-19T07:56:31;99986.27;;;21.54;82.13
28701;BME280;15877;52.344;16.790;2023-09-19T07:59:00;99989.96;;;21.64;81.44
28701;BME280;15877;52.344;16.790;2023-09-19T08:01:29;99988.79;;;21.62;80.65
28701;BME280;15877;52.344;16.790;2023-09-19T08:03:58;99987.30;;;21.60;80.35
28701;BME280;15877;52.344;16.790;2023-09-19T08:06:27;99992.36;;;21.56;80.09
28701;BME280;15877;52.344;16.790;2023-09-19T08:08:58;100004.64;;;21.59;79.68
28701;BME280;15877;52.344;16.790;2023-09-19T08:11:29;100001.07;;;21.48;79.12
28701;BME280;15877;52.344;16.790;2023-09-19T08:13:59;100012.97;;;21.61;79.37
28701;BME280;15877;52.344;16.790;2023-09-19T08:16:28;100014.95;;;21.62;78.97
28701;BME280;15877;52.344;16.790;2023-09-19T08:18:58;100023.83;;;21.65;77.62
28701;BME280;15877;52.344;16.790;2023-09-19T08:21:26;100032.46;;;21.71;77.16
28701;BME280;15877;52.344;16.790;2023-09-19T08:23:58;100029.45;;;21.78;76.99
28701;BME280;15877;52.344;16.790;2023-09-19T08:26:28;100041.54;;;21.68;77.16
28701;BME280;15877;52.344;16.790;2023-09-19T08:28:57;100038.34;;;21.58;76.89
28701;BME280;15877;52.344;16.790;2023-09-19T08:31:26;100030.52;;;21.66;76.28
28701;BME280;15877;52.344;16.790;2023-09-19T08:33:55;100030.40;;;21.73;75.42
28701;BME280;15877;52.344;16.790;2023-09-19T08:36:24;100033.77;;;21.85;74.81
28701;BME280;15877;52.344;16.790;2023-09-19T08:38:53;100040.95;;;21.78;73.15
28701;BME280;15877;52.344;16.790;2023-09-19T08:41:22;100052.39;;;21.75;72.39
28701;BME280;15877;52.344;16.790;2023-09-19T08:43:51;100055.48;;;21.81;72.32
28701;BME280;15877;52.344;16.790;2023-09-19T08:46:21;100055.93;;;21.76;71.82
28701;BME280;15877;52.344;16.790;2023-09-19T08:49:01;100058.69;;;21.73;72.38
28701;BME280;15877;52.344;16.790;2023-09-19T08:51:39;100058.96;;;21.77;70.20
28701;BME280;15877;52.344;16.790;2023-09-19T08:54:09;100055.34;;;21.77;69.66
28701;BME280;15877;52.344;16.790;2023-09-19T08:56:42;100053.77;;;21.78;70.13
28701;BME280;15877;52.344;16.790;2023-09-19T08:59:12;100050.29;;;21.82;70.87
28701;BME280;15877;52.344;16.790;2023-09-19T09:01:42;100051.52;;;21.87;70.79
28701;BME280;15877;52.344;16.790;2023-09-19T09:04:12;100041.48;;;21.97;70.15
28701;BME280;15877;52.344;16.790;2023-09-19T09:06:41;100034.38;;;21.64;70.00
28701;BME280;15877;52.344;16.790;2023-09-19T09:09:11;100052.77;;;21.81;69.15
28701;BME280;15877;52.344;16.790;2023-09-19T09:11:40;100052.00;;;22.08;68.43
28701;BME280;15877;52.344;16.790;2023-09-19T09:14:10;100057.44;;;22.15;67.85
28701;BME280;15877;52.344;16.790;2023-09-19T09:16:40;100052.02;;;22.09;67.65
28701;BME280;15877;52.344;16.790;2023-09-19T09:19:09;100039.55;;;22.13;68.48
28701;BME280;15877;52.344;16.790;2023-09-19T09:21:39;100062.63;;;22.32;68.35
28701;BME280;15877;52.344;16.790;2023-09-19T09:24:26;100068.83;;;22.20;67.67
28701;BME280;15877;52.344;16.790;2023-09-19T09:26:57;100079.20;;;22.04;67.41
28701;BME280;15877;52.344;16.790;2023-09-19T09:29:45;100081.61;;;22.04;66.34
28701;BME280;15877;52.344;16.790;2023-09-19T09:32:21;100066.21;;;22.11;66.65
28701;BME280;15877;52.344;16.790;2023-09-19T09:34:52;100073.70;;;22.04;66.02
28701;BME280;15877;52.344;16.790;2023-09-19T09:37:22;100078.58;;;22.16;65.64
28701;BME280;15877;52.344;16.790;2023-09-19T09:39:53;100088.98;;;22.27;64.74
28701;BME280;15877;52.344;16.790;2023-09-19T09:42:32;100100.88;;;22.19;63.40
28701;BME280;15877;52.344;16.790;2023-09-19T09:45:20;100101.91;;;22.27;63.54
28701;BME280;15877;52.344;16.790;2023-09-19T09:47:57;100107.83;;;22.25;63.46
28701;BME280;15877;52.344;16.790;2023-09-19T09:50:31;100112.25;;;22.22;62.54
28701;BME280;15877;52.344;16.790;2023-09-19T09:53:30;100125.54;;;22.19;62.24
28701;BME280;15877;52.344;16.790;2023-09-19T09:56:04;100129.74;;;22.05;63.42
28701;BME280;15877;52.344;16.790;2023-09-19T09:58:35;100134.25;;;22.03;63.54
28701;BME280;15877;52.344;16.790;2023-09-19T10:01:05;100129.80;;;22.32;62.76
28701;BME280;15877;52.344;16.790;2023-09-19T10:03:38;100123.83;;;22.37;61.62
28701;BME280;15877;52.344;16.790;2023-09-19T10:06:10;100124.17;;;22.56;61.09
28701;BME280;15877;52.344;16.790;2023-09-19T10:08:59;100122.40;;;22.60;60.03
28701;BME280;15877;52.344;16.790;2023-09-19T10:11:34;100128.48;;;22.74;59.62
28701;BME280;15877;52.344;16.790;2023-09-19T10:14:09;100128.71;;;22.93;59.79
28701;BME280;15877;52.344;16.790;2023-09-19T10:16:43;100126.69;;;22.95;59.27
28701;BME280;15877;52.344;16.790;2023-09-19T10:19:20;100126.66;;;23.03;58.91
28701;BME280;15877;52.344;16.790;2023-09-19T10:21:51;100121.08;;;22.98;59.46
28701;BME280;15877;52.344;16.790;2023-09-19T10:24:23;100124.60;;;22.80;59.91
28701;BME280;15877;52.344;16.790;2023-09-19T10:26:55;100116.35;;;22.75;60.23
28701;BME280;15877;52.344;16.790;2023-09-19T10:29:28;100114.03;;;22.96;57.49
28701;BME280;15877;52.344;16.790;2023-09-19T10:32:00;100121.38;;;23.18;55.32
28701;BME280;15877;52.344;16.790;2023-09-19T10:34:34;100114.04;;;23.19;52.45
28701;BME280;15877;52.344;16.790;2023-09-19T10:37:05;100116.41;;;23.33;51.70
28701;BME280;15877;52.344;16.790;2023-09-19T10:39:37;100099.55;;;23.36;52.21
28701;BME280;15877;52.344;16.790;2023-09-19T10:42:13;100115.78;;;23.55;52.28
28701;BME280;15877;52.344;16.790;2023-09-19T10:44:46;100112.37;;;23.53;52.25
28701;BME280;15877;52.344;16.790;2023-09-19T10:47:17;100118.04;;;23.53;52.87
28701;BME280;15877;52.344;16.790;2023-09-19T10:49:47;100119.21;;;23.41;53.90
28701;BME280;15877;52.344;16.790;2023-09-19T10:52:20;100129.59;;;23.38;54.25
28701;BME280;15877;52.344;16.790;2023-09-19T10:54:53;100125.95;;;23.33;53.13
28701;BME280;15877;52.344;16.790;2023-09-19T10:57:25;100129.56;;;23.15;52.49
28701;BME280;15877;52.344;16.790;2023-09-19T11:00:04;100136.22;;;23.25;53.03
28701;BME280;15877;52.344;16.790;2023-09-19T11:03:16;100145.06;;;23.48;51.10
28701;BME280;15877;52.344;16.790;2023-09-19T11:06:09;100145.67;;;23.56;50.76
28701;BME280;15877;52.344;16.790;2023-09-19T11:08:57;100144.33;;;23.59;51.83
28701;BME280;15877;52.344;16.790;2023-09-19T11:11:49;100124.83;;;23.38;52.72
28701;BME280;15877;52.344;16.790;2023-09-19T11:14:40;100151.14;;;23.70;51.90
28701;BME280;15877;52.344;16.790;2023-09-19T11:17:39;100149.83;;;23.86;51.58
28701;BME280;15877;52.344;16.790;2023-09-19T11:20:26;100146.12;;;23.69;51.65
28701;BME280;15877;52.344;16.790;2023-09-19T11:23:25;100151.56;;;23.54;52.30
28701;BME280;15877;52.344;16.790;2023-09-19T11:26:01;100153.73;;;23.55;51.97
28701;BME280;15877;52.344;16.790;2023-09-19T11:28:35;100157.86;;;23.47;52.11
28701;BME280;15877;52.344;16.790;2023-09-19T11:34:45;100172.77;;;23.38;51.27
28701;BME280;15877;52.344;16.790;2023-09-19T11:40:38;100166.30;;;22.71;53.37
28701;BME280;15877;52.344;16.790;2023-09-19T11:43:32;100166.00;;;22.79;52.61
28701;BME280;15877;52.344;16.790;2023-09-19T11:46:08;100162.23;;;22.70;52.39
28701;BME280;15877;52.344;16.790;2023-09-19T11:48:42;100162.80;;;22.77;52.22
28701;BME280;15877;52.344;16.790;2023-09-19T11:51:16;100160.51;;;22.95;53.02
28701;BME280;15877;52.344;16.790;2023-09-19T11:53:54;100161.42;;;23.02;52.78
28701;BME280;15877;52.344;16.790;2023-09-19T11:56:27;100162.86;;;22.93;52.70
28701;BME280;15877;52.344;16.790;2023-09-19T11:58:59;100161.20;;;23.06;52.74
28701;BME280;15877;52.344;16.790;2023-09-19T12:01:33;100160.46;;;23.14;52.94
28701;BME280;15877;52.344;16.790;2023-09-19T12:04:07;100152.52;;;23.28;52.87
28701;BME280;15877;52.344;16.790;2023-09-19T12:06:40;100152.07;;;23.44;53.20
28701;BME280;15877;52.344;16.790;2023-09-19T12:09:15;100150.98;;;23.65;52.38
28701;BME280;15877;52.344;16.790;2023-09-19T12:11:48;100150.49;;;23.79;52.77
28701;BME280;15877;52.344;16.790;2023-09-19T12:14:27;100144.94;;;23.93;51.27
28701;BME280;15877;52.344;16.790;2023-09-19T12:17:00;100147.85;;;24.09;51.63
28701;BME280;15877;52.344;16.790;2023-09-19T12:19:34;100143.65;;;24.18;50.97
28701;BME280;15877;52.344;16.790;2023-09-19T12:22:06;100134.40;;;24.28;50.83
28701;BME280;15877;52.344;16.790;2023-09-19T12:24:40;100144.91;;;24.39;50.70
28701;BME280;15877;52.344;16.790;2023-09-19T12:27:15;100141.96;;;24.21;49.71
28701;BME280;15877;52.344;16.790;2023-09-19T12:29:48;100139.59;;;23.98;49.58
28701;BME280;15877;52.344;16.790;2023-09-19T12:32:35;100147.14;;;24.28;49.75
28701;BME280;15877;52.344;16.790;2023-09-19T12:35:08;100147.38;;;23.80;49.55
28701;BME280;15877;52.344;16.790;2023-09-19T12:37:45;100147.88;;;24.17;49.86
28701;BME280;15877;52.344;16.790;2023-09-19T12:40:24;100147.11;;;24.29;49.99
28701;BME280;15877;52.344;16.790;2023-09-19T12:43:01;100148.36;;;24.26;49.06
28701;BME280;15877;52.344;16.790;2023-09-19T12:45:36;100147.76;;;24.31;49.52
28701;BME280;15877;52.344;16.790;2023-09-19T12:48:24;100148.58;;;23.87;50.77
28701;BME280;15877;52.344;16.790;2023-09-19T12:51:06;100151.97;;;23.82;50.21
28701;BME280;15877;52.344;16.790;2023-09-19T12:53:42;100151.38;;;23.63;50.11
28701;BME280;15877;52.344;16.790;2023-09-19T12:56:17;100157.96;;;23.69;50.86
28701;BME280;15877;52.344;16.790;2023-09-19T12:58:54;100146.69;;;23.54;51.04
28701;BME280;15877;52.344;16.790;2023-09-19T13:01:27;100150.30;;;23.84;50.66
28701;BME280;15877;52.344;16.790;2023-09-19T13:04:17;100146.15;;;24.16;50.29
28701;BME280;15877;52.344;16.790;2023-09-19T13:06:57;100144.85;;;24.41;49.31
28701;BME280;15877;52.344;16.790;2023-09-19T13:09:32;100142.13;;;24.46;48.57
28701;BME280;15877;52.344;16.790;2023-09-19T13:12:36;100130.70;;;24.42;48.83
28701;BME280;15877;52.344;16.790;2023-09-19T13:15:13;100142.41;;;24.66;49.06
28701;BME280;15877;52.344;16.790;2023-09-19T13:17:47;100148.16;;;24.66;49.45
28701;BME280;15877;52.344;16.790;2023-09-19T13:20:24;100147.51;;;24.52;49.06
28701;BME280;15877;52.344;16.790;2023-09-19T13:22:58;100144.31;;;24.73;48.65
28701;BME280;15877;52.344;16.790;2023-09-19T13:25:39;100140.04;;;24.70;49.01
28701;BME280;15877;52.344;16.790;2023-09-19T13:28:11;100137.50;;;24.66;48.68
28701;BME280;15877;52.344;16.790;2023-09-19T13:30:44;100143.42;;;24.73;48.96
28701;BME280;15877;52.344;16.790;2023-09-19T13:33:17;100141.52;;;24.68;49.13
28701;BME280;15877;52.344;16.790;2023-09-19T13:35:52;100141.15;;;24.62;49.13
28701;BME280;15877;52.344;16.790;2023-09-19T13:38:24;100146.27;;;24.56;50.06
28701;BME280;15877;52.344;16.790;2023-09-19T13:40:56;100137.69;;;24.35;50.60
28701;BME280;15877;52.344;16.790;2023-09-19T13:43:31;100145.25;;;23.96;50.85
28701;BME280;15877;52.344;16.790;2023-09-19T13:46:04;100155.54;;;23.87;51.00
28701;BME280;15877;52.344;16.790;2023-09-19T13:48:38;100148.89;;;24.23;50.08
28701;BME280;15877;52.344;16.790;2023-09-19T13:51:11;100148.34;;;24.18;50.55
28701;BME280;15877;52.344;16.790;2023-09-19T13:53:43;100149.35;;;23.86;51.77
28701;BME280;15877;52.344;16.790;2023-09-19T13:56:16;100145.73;;;23.49;51.55
28701;BME280;15877;52.344;16.790;2023-09-19T13:58:48;100135.00;;;23.36;51.94
28701;BME280;15877;52.344;16.790;2023-09-19T14:01:20;100143.30;;;23.45;51.31
28701;BME280;15877;52.344;16.790;2023-09-19T14:03:53;100149.58;;;23.77;50.39
28701;BME280;15877;52.344;16.790;2023-09-19T14:06:27;100149.59;;;23.95;50.02
28701;BME280;15877;52.344;16.790;2023-09-19T14:09:00;100145.89;;;23.91;50.26
28701;BME280;15877;52.344;16.790;2023-09-19T14:11:32;100148.64;;;23.83;50.26
28701;BME280;15877;52.344;16.790;2023-09-19T14:14:04;100145.88;;;23.85;50.62
28701;BME280;15877;52.344;16.790;2023-09-19T14:16:37;100148.77;;;23.88;50.40
28701;BME280;15877;52.344;16.790;2023-09-19T14:19:10;100144.52;;;23.93;50.03
28701;BME280;15877;52.344;16.790;2023-09-19T14:21:44;100146.39;;;23.96;49.17
28701;BME280;15877;52.344;16.790;2023-09-19T14:24:19;100147.26;;;23.92;48.83
28701;BME280;15877;52.344;16.790;2023-09-19T14:26:51;100148.50;;;23.78;49.56
28701;BME280;15877;52.344;16.790;2023-09-19T14:29:23;100134.55;;;23.43;49.44
28701;BME280;15877;52.344;16.790;2023-09-19T14:31:56;100150.83;;;23.49;50.00
28701;BME280;15877;52.344;16.790;2023-09-19T14:34:29;100153.67;;;23.83;48.63
28701;BME280;15877;52.344;16.790;2023-09-19T14:37:02;100154.39;;;23.81;48.53
28701;BME280;15877;52.344;16.790;2023-09-19T14:39:35;100152.93;;;23.63;48.32
28701;BME280;15877;52.344;16.790;2023-09-19T14:42:09;100161.11;;;23.50;47.43
28701;BME280;15877;52.344;16.790;2023-09-19T14:44:41;100166.10;;;23.05;46.44
28701;BME280;15877;52.344;16.790;2023-09-19T14:47:13;100171.35;;;22.66;46.35
28701;BME280;15877;52.344;16.790;2023-09-19T14:49:47;100176.11;;;22.47;47.08
28701;BME280;15877;52.344;16.790;2023-09-19T14:52:20;100175.05;;;22.53;47.88
28701;BME280;15877;52.344;16.790;2023-09-19T14:54:53;100172.66;;;22.49;47.27
28701;BME280;15877;52.344;16.790;2023-09-19T14:57:25;100173.07;;;22.52;47.77
28701;BME280;15877;52.344;16.790;2023-09-19T14:59:57;100175.40;;;22.38;47.58
28701;BME280;15877;52.344;16.790;2023-09-19T15:02:31;100176.44;;;22.58;47.25
28701;BME280;15877;52.344;16.790;2023-09-19T15:05:04;100167.64;;;22.41;47.76
28701;BME280;15877;52.344;16.790;2023-09-19T15:07:39;100175.22;;;22.50;48.61
28701;BME280;15877;52.344;16.790;2023-09-19T15:10:12;100160.80;;;22.69;47.78
28701;BME280;15877;52.344;16.790;2023-09-19T15:12:44;100169.21;;;22.66;48.15
28701;BME280;15877;52.344;16.790;2023-09-19T15:15:17;100165.59;;;22.81;47.45
28701;BME280;15877;52.344;16.790;2023-09-19T15:17:49;100175.29;;;22.86;47.29
28701;BME280;15877;52.344;16.790;2023-09-19T15:20:22;100176.80;;;22.90;47.46
28701;BME280;15877;52.344;16.790;2023-09-19T15:22:57;100172.29;;;22.86;46.58
28701;BME280;15877;52.344;16.790;2023-09-19T15:25:29;100167.17;;;22.48;47.12
28701;BME280;15877;52.344;16.790;2023-09-19T15:28:01;100182.52;;;22.57;47.37
28701;BME280;15877;52.344;16.790;2023-09-19T15:30:39;100171.72;;;22.32;47.82
28701;BME280;15877;52.344;16.790;2023-09-19T15:33:12;100174.27;;;22.60;47.95
28701;BME280;15877;52.344;16.790;2023-09-19T15:35:45;100173.67;;;22.76;47.28
28701;BME280;15877;52.344;16.790;2023-09-19T15:38:17;100172.30;;;22.65;47.22
28701;BME280;15877;52.344;16.790;2023-09-19T15:40:49;100173.15;;;22.77;47.13
28701;BME280;15877;52.344;16.790;2023-09-19T15:43:22;100177.86;;;22.71;47.58
28701;BME280;15877;52.344;16.790;2023-09-19T15:45:54;100181.97;;;22.83;47.28
28701;BME280;15877;52.344;16.790;2023-09-19T15:48:27;100179.77;;;22.73;47.78
28701;BME280;15877;52.344;16.790;2023-09-19T15:51:05;100187.73;;;22.48;48.90
28701;BME280;15877;52.344;16.790;2023-09-19T15:53:43;100177.57;;;22.28;48.91
28701;BME280;15877;52.344;16.790;2023-09-19T15:56:16;100184.19;;;22.37;49.00
28701;BME280;15877;52.344;16.790;2023-09-19T15:58:49;100188.58;;;22.44;49.05
28701;BME280;15877;52.344;16.790;2023-09-19T16:01:22;100191.16;;;22.39;49.35
28701;BME280;15877;52.344;16.790;2023-09-19T16:03:55;100194.27;;;22.26;50.00
28701;BME280;15877;52.344;16.790;2023-09-19T16:06:30;100198.20;;;22.22;50.08
28701;BME280;15877;52.344;16.790;2023-09-19T16:09:03;100185.84;;;22.05;50.14
28701;BME280;15877;52.344;16.790;2023-09-19T16:11:36;100200.24;;;22.13;50.49
28701;BME280;15877;52.344;16.790;2023-09-19T16:14:09;100199.47;;;22.29;50.66
28701;BME280;15877;52.344;16.790;2023-09-19T16:16:44;100196.10;;;22.25;50.63
28701;BME280;15877;52.344;16.790;2023-09-19T16:19:18;100200.94;;;22.22;51.04
28701;BME280;15877;52.344;16.790;2023-09-19T16:21:50;100199.16;;;22.17;50.95
28701;BME280;15877;52.344;16.790;2023-09-19T16:24:23;100202.07;;;22.12;51.13
28701;BME280;15877;52.344;16.790;2023-09-19T16:26:55;100200.14;;;22.03;51.01
28701;BME280;15877;52.344;16.790;2023-09-19T16:29:28;100178.39;;;21.79;51.42
28701;BME280;15877;52.344;16.790;2023-09-19T16:32:00;100203.28;;;21.97;51.33
28701;BME280;15877;52.344;16.790;2023-09-19T16:34:33;100204.77;;;21.94;51.75
28701;BME280;15877;52.344;16.790;2023-09-19T16:37:06;100206.99;;;21.92;52.05
28701;BME280;15877;52.344;16.790;2023-09-19T16:39:38;100207.19;;;21.91;52.15
28701;BME280;15877;52.344;16.790;2023-09-19T16:42:10;100207.35;;;21.91;52.42
28701;BME280;15877;52.344;16.790;2023-09-19T16:44:50;100208.27;;;21.87;52.41
28701;BME280;15877;52.344;16.790;2023-09-19T16:47:23;100196.16;;;21.67;53.31
28701;BME280;15877;52.344;16.790;2023-09-19T16:49:55;100208.55;;;21.60;53.59
28701;BME280;15877;52.344;16.790;2023-09-19T16:52:28;100211.02;;;21.59;53.91
28701;BME280;15877;52.344;16.790;2023-09-19T16:55:01;100213.67;;;21.59;54.16
28701;BME280;15877;52.344;16.790;2023-09-19T16:57:34;100213.55;;;21.66;55.23
28701;BME280;15877;52.344;16.790;2023-09-19T17:00:10;100215.71;;;21.67;54.31
28701;BME280;15877;52.344;16.790;2023-09-19T17:02:47;100218.36;;;21.67;54.66
28701;BME280;15877;52.344;16.790;2023-09-19T17:05:23;100218.69;;;21.64;55.37
28701;BME280;15877;52.344;16.790;2023-09-19T17:07:57;100219.95;;;21.60;55.91
28701;BME280;15877;52.344;16.790;2023-09-19T17:10:32;100208.62;;;21.48;56.00
28701;BME280;15877;52.344;16.790;2023-09-19T17:13:05;100221.06;;;21.48;56.09
28701;BME280;15877;52.344;16.790;2023-09-19T17:15:38;100221.45;;;21.45;56.50
28701;BME280;15877;52.344;16.790;2023-09-19T17:18:10;100225.16;;;21.39;56.56
28701;BME280;15877;52.344;16.790;2023-09-19T17:20:43;100228.48;;;21.33;56.72
28701;BME280;15877;52.344;16.790;2023-09-19T17:23:15;100221.71;;;21.29;57.03
28701;BME280;15877;52.344;16.790;2023-09-19T17:25:48;100225.30;;;21.21;57.46
28701;BME280;15877;52.344;16.790;2023-09-19T17:28:20;100221.14;;;21.16;57.74
28701;BME280;15877;52.344;16.790;2023-09-19T17:30:53;100223.04;;;21.11;58.35
28701;BME280;15877;52.344;16.790;2023-09-19T17:33:26;100225.08;;;21.08;58.62
28701;BME280;15877;52.344;16.790;2023-09-19T17:36:09;100227.96;;;21.02;58.77
28701;BME280;15877;52.344;16.790;2023-09-19T17:38:43;100227.89;;;20.97;58.70
28701;BME280;15877;52.344;16.790;2023-09-19T17:41:15;100233.52;;;20.91;59.01
28701;BME280;15877;52.344;16.790;2023-09-19T17:43:53;100223.71;;;20.78;58.78
28701;BME280;15877;52.344;16.790;2023-09-19T17:46:26;100233.73;;;20.81;58.47
28701;BME280;15877;52.344;16.790;2023-09-19T17:48:59;100224.36;;;20.71;58.47
28701;BME280;15877;52.344;16.790;2023-09-19T17:51:31;100238.21;;;20.76;58.28
28701;BME280;15877;52.344;16.790;2023-09-19T17:54:04;100246.35;;;20.69;58.69
28701;BME280;15877;52.344;16.790;2023-09-19T17:56:36;100249.94;;;20.63;58.93
28701;BME280;15877;52.344;16.790;2023-09-19T17:59:11;100250.88;;;20.57;59.16
28701;BME280;15877;52.344;16.790;2023-09-19T18:01:44;100252.92;;;20.52;59.04
28701;BME280;15877;52.344;16.790;2023-09-19T18:04:17;100254.27;;;20.53;59.25
28701;BME280;15877;52.344;16.790;2023-09-19T18:06:50;100255.14;;;20.47;59.64
28701;BME280;15877;52.344;16.790;2023-09-19T18:09:22;100257.19;;;20.38;58.79
28701;BME280;15877;52.344;16.790;2023-09-19T18:11:55;100258.26;;;20.29;58.95
28701;BME280;15877;52.344;16.790;2023-09-19T18:14:28;100262.33;;;20.23;59.35
28701;BME280;15877;52.344;16.790;2023-09-19T18:17:03;100251.80;;;20.09;59.47
28701;BME280;15877;52.344;16.790;2023-09-19T18:19:36;100263.77;;;20.14;59.70
28701;BME280;15877;52.344;16.790;2023-09-19T18:22:09;100272.92;;;20.11;59.90
28701;BME280;15877;52.344;16.790;2023-09-19T18:24:42;100263.46;;;20.00;59.50
28701;BME280;15877;52.344;16.790;2023-09-19T18:27:14;100273.02;;;20.06;59.68
28701;BME280;15877;52.344;16.790;2023-09-19T18:29:47;100263.91;;;19.93;59.83
28701;BME280;15877;52.344;16.790;2023-09-19T18:32:22;100276.50;;;19.97;59.96
28701;BME280;15877;52.344;16.790;2023-09-19T18:34:54;100281.80;;;19.93;59.98
28701;BME280;15877;52.344;16.790;2023-09-19T18:37:28;100282.83;;;19.91;60.00
28701;BME280;15877;52.344;16.790;2023-09-19T18:40:00;100287.38;;;19.84;60.00
28701;BME280;15877;52.344;16.790;2023-09-19T18:42:32;100280.52;;;19.80;60.04
28701;BME280;15877;52.344;16.790;2023-09-19T18:45:06;100279.22;;;19.76;59.99
28701;BME280;15877;52.344;16.790;2023-09-19T18:47:39;100274.85;;;19.68;59.55
28701;BME280;15877;52.344;16.790;2023-09-19T18:50:12;100275.18;;;19.63;59.94
28701;BME280;15877;52.344;16.790;2023-09-19T18:52:44;100283.09;;;19.57;59.99
28701;BME280;15877;52.344;16.790;2023-09-19T18:55:18;100287.33;;;19.50;59.99
28701;BME280;15877;52.344;16.790;2023-09-19T18:57:53;100293.32;;;19.48;60.02
28701;BME280;15877;52.344;16.790;2023-09-19T19:00:26;100293.19;;;19.46;59.48
28701;BME280;15877;52.344;16.790;2023-09-19T19:02:59;100291.63;;;19.43;59.80
28701;BME280;15877;52.344;16.790;2023-09-19T19:05:34;100292.88;;;19.39;60.15
28701;BME280;15877;52.344;16.790;2023-09-19T19:08:07;100290.56;;;19.33;60.11
28701;BME280;15877;52.344;16.790;2023-09-19T19:10:41;100293.17;;;19.31;59.70
28701;BME280;15877;52.344;16.790;2023-09-19T19:13:13;100282.89;;;19.18;59.97
28701;BME280;15877;52.344;16.790;2023-09-19T19:15:46;100295.80;;;19.20;60.05
28701;BME280;15877;52.344;16.790;2023-09-19T19:18:18;100282.16;;;19.08;60.17
28701;BME280;15877;52.344;16.790;2023-09-19T19:20:59;100291.42;;;19.12;60.43
28701;BME280;15877;52.344;16.790;2023-09-19T19:23:32;100277.70;;;19.00;60.46
28701;BME280;15877;52.344;16.790;2023-09-19T19:26:07;100277.15;;;18.98;60.78
28701;BME280;15877;52.344;16.790;2023-09-19T19:28:41;100290.65;;;19.04;61.13
28701;BME280;15877;52.344;16.790;2023-09-19T19:31:13;100286.91;;;19.02;60.85
28701;BME280;15877;52.344;16.790;2023-09-19T19:33:47;100284.21;;;19.00;60.66
28701;BME280;15877;52.344;16.790;2023-09-19T19:36:19;100289.01;;;18.96;60.97
28701;BME280;15877;52.344;16.790;2023-09-19T19:38:57;100286.24;;;18.93;60.84
28701;BME280;15877;52.344;16.790;2023-09-19T19:41:30;100287.23;;;18.91;60.88
28701;BME280;15877;52.344;16.790;2023-09-19T19:44:02;100289.98;;;18.90;60.79
28701;BME280;15877;52.344;16.790;2023-09-19T19:46:35;100285.45;;;18.85;60.44
28701;BME280;15877;52.344;16.790;2023-09-19T19:49:08;100291.69;;;18.83;60.48
28701;BME280;15877;52.344;16.790;2023-09-19T19:51:42;100297.13;;;18.79;60.72
28701;BME280;15877;52.344;16.790;2023-09-19T19:54:15;100297.23;;;18.77;60.43
28701;BME280;15877;52.344;16.790;2023-09-19T19:56:48;100296.91;;;18.71;60.35
28701;BME280;15877;52.344;16.790;2023-09-19T19:59:21;100282.83;;;18.61;60.05
28701;BME280;15877;52.344;16.790;2023-09-19T20:01:53;100296.82;;;18.66;60.51
28701;BME280;15877;52.344;16.790;2023-09-19T20:04:26;100296.95;;;18.62;60.80
28701;BME280;15877;52.344;16.790;2023-09-19T20:06:59;100296.77;;;18.57;61.07
28701;BME280;15877;52.344;16.790;2023-09-19T20:09:33;100295.20;;;18.54;61.47
28701;BME280;15877;52.344;16.790;2023-09-19T20:12:07;100289.27;;;18.53;61.34
28701;BME280;15877;52.344;16.790;2023-09-19T20:14:39;100291.38;;;18.52;61.74
28701;BME280;15877;52.344;16.790;2023-09-19T20:17:11;100292.99;;;18.52;61.50
28701;BME280;15877;52.344;16.790;2023-09-19T20:19:44;100292.59;;;18.52;61.25
28701;BME280;15877;52.344;16.790;2023-09-19T20:22:21;100292.86;;;18.49;61.87
28701;BME280;15877;52.344;16.790;2023-09-19T20:24:59;100284.45;;;18.40;61.68
28701;BME280;15877;52.344;16.790;2023-09-19T20:27:31;100291.58;;;18.43;62.00
28701;BME280;15877;52.344;16.790;2023-09-19T20:30:04;100292.32;;;18.40;62.05
28701;BME280;15877;52.344;16.790;2023-09-19T20:32:38;100294.73;;;18.39;61.22
28701;BME280;15877;52.344;16.790;2023-09-19T20:35:11;100298.14;;;18.36;61.15
28701;BME280;15877;52.344;16.790;2023-09-19T20:37:45;100300.13;;;18.31;61.94
28701;BME280;15877;52.344;16.790;2023-09-19T20:40:21;100291.52;;;18.26;61.91
28701;BME280;15877;52.344;16.790;2023-09-19T20:42:53;100302.61;;;18.32;61.52
28701;BME280;15877;52.344;16.790;2023-09-19T20:45:26;100290.64;;;18.24;61.79
28701;BME280;15877;52.344;16.790;2023-09-19T20:47:58;100301.02;;;18.30;62.00
28701;BME280;15877;52.344;16.790;2023-09-19T20:50:30;100304.34;;;18.27;61.98
28701;BME280;15877;52.344;16.790;2023-09-19T20:53:04;100300.59;;;18.24;62.41
28701;BME280;15877;52.344;16.790;2023-09-19T20:55:37;100299.89;;;18.23;62.22
28701;BME280;15877;52.344;16.790;2023-09-19T20:58:11;100297.73;;;18.23;62.04
28701;BME280;15877;52.344;16.790;2023-09-19T21:00:43;100295.98;;;18.20;62.21
28701;BME280;15877;52.344;16.790;2023-09-19T21:03:17;100295.19;;;18.19;62.65
28701;BME280;15877;52.344;16.790;2023-09-19T21:06:00;100294.66;;;18.17;62.41